DONNELLS (DON)

Elevation: 4835' · STANISLAUS R basin · Operator: US Bureau of Reclamation


Station comments:

05/29/2015The reservoir capacity was updated May 2015 with information from the USBR


Provisional data, subject to change.
Query executed Wednesday at 22:13:14   clock

Select a sensor type for a plot of data.
Note: Reservoir Flows are daily averages.

Earlier

Date STORAGE    RES CHG    OUTFLOW   
 AF   AF   CFS  
06/02/2015 53244 -122 701
06/03/2015 53040 -204 686
06/04/2015 52796 -244 665
06/05/2015 52620 -176 614
06/06/2015 52769 149 368
06/07/2015 52914 145 407
06/08/2015 53150 236 405
06/09/2015 53421 271 394
06/10/2015 53942 521 342
06/11/2015 54627 685 321
06/12/2015 55104 477 335
06/13/2015 55503 399 342
06/14/2015 55731 228 351
06/15/2015 55807 76 356
06/16/2015 55795 -12 343
06/17/2015 55755 -40 311
06/18/2015 55944 189 193
06/19/2015 55924 -20 258
06/20/2015 55948 24 227
06/21/2015 55936 -12 237
06/22/2015 55884 -52 248
06/23/2015 55992 108 166
06/24/2015 56072 80 177
06/25/2015 56024 -48 242
06/26/2015 55976 -48 243
06/27/2015 56080 104 --
06/28/2015 56193 113 161
06/29/2015 56285 92 151
06/30/2015 56172 -113 256
07/01/2015 -- -- --

Later | Latest

Warning! This data is preliminary and subject to revision.

Show DON Map | Plot DON Data | 1 Month DON Data | Real-Time DON Data | DON Info